Main page
METAR-TAF:

METAR-TAF

Airports :

Philip Municipal Airport

Philip, South Dakota, United States

latitude: 44-03-04N, longitude: 101-36-04W, elevation: 2207 ft

Current weather observation

The report was made 56 minutes ago, at 18:55 UTC
Wind 8 mph from the South, varying between South/Southeast and Southwest
Temperature 86°F
Humidity 17%
Pressure 29.77 in. Hg
Visibility: 10 miles
Clear sky

METAR: KPHP 221855Z AUTO 17007KT 150V220 10SM CLR 30/02 A2977 RMK AO2 SLP065 T03000022

Time: 13:51 (19:51 UTC)


TAF: missing

Weather observations and forecasts of more than 4000 airports (METAR and TAF reports).

The available stations are represented by yellow and red dots on the map.

Hover mouse over dot to see the name of the station.

Then click to see weather observations and forecasts.

To change the map : click on the green buttons with a black cross to zoom in, on the green button with a dash to zoom out, or on the green arrows for adjacent maps.


METAR-TAF: